Aérodrome :
LOGIN :

S'inscrire | Disclaimer

   EN    FR    IT 

 










Légende :    VFR   VFR Marginal   IFR   IFR Intensif   IFR Très Intensif
Visi : 
Plafond : 
>= 8 km
>= 3000ft
5 à 8 km
1000 à 3000 ft
1500m à 5 km
500 à 1000 ft
800 à 1500m
200 à 500 ft
< 800m
< 200 ft
Symboles :   Orages  Brouillard  Fortes neiges  Fortes précipitations  Vent > 20 kt
SIGMETs :   Divers  Orages  Givrage  Turbulence  Onde Orograph.  Cendres Volcan.






- Altitude de l'aérodrome : 52 ft
- Code IATA : IOM


EGNS - Isle of Man

DERNIER METAR :
  • 130850Z 03004KT 290V080 9999 FEW005 SCT014 15/12 Q1015 NOSIG

METARs EXPIRÉS :
  • 130820Z 36007KT 310V040 9999 FEW005 15/13 Q1015 NOSIG
  • 130750Z 34007KT 9999 FEW005 14/12 Q1015 NOSIG
  • 130720Z 30004KT 9999 FEW005 14/12 Q1015 NOSIG
  • 130650Z 36007KT 9999 FEW005 13/11 Q1015 NOSIG
  • 130620Z 35007KT 9999 FEW003 13/11 Q1015 NOSIG
  • 130550Z 35005KT 9999 FEW005 13/11 Q1015 NOSIG
  • 130520Z 35004KT 9999 FEW005 12/11 Q1015 NOSIG
  • 130450Z 34005KT 9999 FEW006 12/11 Q1015 NOSIG

TAF TAF EGNS
Valide du 13 à 09h jusqu'au 13 à 18h UTC


130800Z 1309/1318 34007KT 9999 FEW005



MET'MAP, la Météo Aéronautique d'un coup d'oeil ! - Copyright ORBIFLY Décembre 2007 - Disclaimer

ORBIFLY MET'MAP TEAM :

Programmation & Développement : Alexandra Zaïnal
Sur une idée originale de : Baudouin d'Aumeries
Soutien technique & logistique : Manuel Goepfert
Assistance : Marc-Olivier Méhu




SOURCES & CREDITS :

   NOAA